Terminal Aerodrome Forecast
Issued by NWS

Home | Current Version | Previous Version | Text Only | Print | Product List | Glossary On
Versions: 1 2 3 4 5 6 7 8 9 10 11 12 13 14
000
FTUS45 KGGW 220520
TAFGDV
TAF
KGDV 220520Z 2206/2306 24005KT P6SM SKC
     FM221400 22010KT P6SM OVC100
     FM221600 23015G24KT P6SM OVC070
     FM222200 26023G33KT P6SM BKN070
     FM230000 27029G41KT P6SM SCT080
     FM230500 28019G32KT P6SM FEW070=

USA.gov is the U.S. government's official web portal to all federal, state and local government web resources and services.